sensor_id;sensor_type;location;lat;lon;timestamp;pressure;altitude;pressure_sealevel;temperature;humidity
48810;BME280;40070;47.322;18.784;2022-11-11T00:00:17;1018.03;;;9.46;78.28
48810;BME280;40070;47.322;18.784;2022-11-11T00:02:19;1018.07;;;9.71;76.31
48810;BME280;40070;47.322;18.784;2022-11-11T00:04:21;1018.06;;;9.71;75.41
48810;BME280;40070;47.322;18.784;2022-11-11T00:06:24;1018.01;;;9.33;76.42
48810;BME280;40070;47.322;18.784;2022-11-11T00:08:26;1018.02;;;9.44;76.37
48810;BME280;40070;47.322;18.784;2022-11-11T00:10:29;1018.01;;;9.20;76.79
48810;BME280;40070;47.322;18.784;2022-11-11T00:12:31;1018.03;;;9.53;75.92
48810;BME280;40070;47.322;18.784;2022-11-11T00:14:34;1018.05;;;9.19;76.45
48810;BME280;40070;47.322;18.784;2022-11-11T00:16:36;1018.10;;;8.91;77.23
48810;BME280;40070;47.322;18.784;2022-11-11T00:18:39;1018.10;;;8.80;78.49
48810;BME280;40070;47.322;18.784;2022-11-11T00:20:41;1018.11;;;8.74;78.25
48810;BME280;40070;47.322;18.784;2022-11-11T00:22:43;1018.13;;;8.60;79.16
48810;BME280;40070;47.322;18.784;2022-11-11T00:24:46;1018.15;;;8.78;79.37
48810;BME280;40070;47.322;18.784;2022-11-11T00:26:48;1018.19;;;8.93;79.12
48810;BME280;40070;47.322;18.784;2022-11-11T00:28:50;1018.22;;;9.30;77.93
48810;BME280;40070;47.322;18.784;2022-11-11T00:30:59;1018.25;;;9.34;76.85
48810;BME280;40070;47.322;18.784;2022-11-11T00:33:02;1018.25;;;9.43;76.08
48810;BME280;40070;47.322;18.784;2022-11-11T00:35:04;1018.24;;;9.34;76.76
48810;BME280;40070;47.322;18.784;2022-11-11T00:37:07;1018.22;;;9.52;76.00
48810;BME280;40070;47.322;18.784;2022-11-11T00:39:09;1018.22;;;9.42;76.01
48810;BME280;40070;47.322;18.784;2022-11-11T00:41:12;1018.20;;;9.47;75.75
48810;BME280;40070;47.322;18.784;2022-11-11T00:43:15;1018.20;;;9.56;75.16
48810;BME280;40070;47.322;18.784;2022-11-11T00:45:17;1018.20;;;9.56;74.96
48810;BME280;40070;47.322;18.784;2022-11-11T00:47:19;1018.20;;;9.66;74.79
48810;BME280;40070;47.322;18.784;2022-11-11T00:49:22;1018.16;;;9.75;73.86
48810;BME280;40070;47.322;18.784;2022-11-11T00:51:24;1018.15;;;9.69;73.80
48810;BME280;40070;47.322;18.784;2022-11-11T00:53:27;1018.18;;;9.68;73.90
48810;BME280;40070;47.322;18.784;2022-11-11T00:55:30;1018.17;;;9.72;73.82
48810;BME280;40070;47.322;18.784;2022-11-11T00:57:32;1018.27;;;9.67;73.76
48810;BME280;40070;47.322;18.784;2022-11-11T00:59:35;1018.30;;;9.55;75.17
48810;BME280;40070;47.322;18.784;2022-11-11T01:01:37;1018.30;;;9.64;74.85
48810;BME280;40070;47.322;18.784;2022-11-11T01:03:39;1018.33;;;9.76;74.41
48810;BME280;40070;47.322;18.784;2022-11-11T01:05:42;1018.30;;;9.77;74.42
48810;BME280;40070;47.322;18.784;2022-11-11T01:07:44;1018.26;;;9.69;74.21
48810;BME280;40070;47.322;18.784;2022-11-11T01:09:46;1018.18;;;9.72;73.78
48810;BME280;40070;47.322;18.784;2022-11-11T01:11:49;1018.24;;;9.78;73.51
48810;BME280;40070;47.322;18.784;2022-11-11T01:13:51;1018.22;;;9.64;74.11
48810;BME280;40070;47.322;18.784;2022-11-11T01:15:57;1018.22;;;9.85;73.38
48810;BME280;40070;47.322;18.784;2022-11-11T01:18:00;1018.25;;;9.81;73.05
48810;BME280;40070;47.322;18.784;2022-11-11T01:20:02;1018.25;;;9.72;73.03
48810;BME280;40070;47.322;18.784;2022-11-11T01:22:05;1018.24;;;9.73;72.84
48810;BME280;40070;47.322;18.784;2022-11-11T01:24:07;1018.27;;;9.76;72.83
48810;BME280;40070;47.322;18.784;2022-11-11T01:26:14;1018.25;;;9.83;72.32
48810;BME280;40070;47.322;18.784;2022-11-11T01:28:16;1018.30;;;9.76;72.24
48810;BME280;40070;47.322;18.784;2022-11-11T01:30:19;1018.29;;;9.75;72.31
48810;BME280;40070;47.322;18.784;2022-11-11T01:32:21;1018.30;;;9.73;71.91
48810;BME280;40070;47.322;18.784;2022-11-11T01:34:24;1018.31;;;9.55;72.59
48810;BME280;40070;47.322;18.784;2022-11-11T01:36:26;1018.31;;;9.45;74.00
48810;BME280;40070;47.322;18.784;2022-11-11T01:38:29;1018.27;;;9.05;76.81
48810;BME280;40070;47.322;18.784;2022-11-11T01:40:38;1018.23;;;8.99;78.21
48810;BME280;40070;47.322;18.784;2022-11-11T01:42:50;1018.28;;;9.09;78.25
48810;BME280;40070;47.322;18.784;2022-11-11T01:44:53;1018.27;;;9.29;77.11
48810;BME280;40070;47.322;18.784;2022-11-11T01:46:58;1018.31;;;9.50;75.91
48810;BME280;40070;47.322;18.784;2022-11-11T01:49:47;1018.29;;;9.44;75.71
48810;BME280;40070;47.322;18.784;2022-11-11T01:51:23;1018.27;;;9.21;76.85
48810;BME280;40070;47.322;18.784;2022-11-11T01:53:28;1018.29;;;9.06;78.15
48810;BME280;40070;47.322;18.784;2022-11-11T01:55:31;1018.27;;;9.28;77.60
48810;BME280;40070;47.322;18.784;2022-11-11T01:57:35;1018.28;;;9.51;76.61
48810;BME280;40070;47.322;18.784;2022-11-11T01:59:40;1018.28;;;9.64;75.12
48810;BME280;40070;47.322;18.784;2022-11-11T02:01:44;1018.26;;;9.76;74.43
48810;BME280;40070;47.322;18.784;2022-11-11T02:03:49;1018.24;;;9.81;73.40
48810;BME280;40070;47.322;18.784;2022-11-11T02:05:52;1018.29;;;9.61;73.24
48810;BME280;40070;47.322;18.784;2022-11-11T02:07:55;1018.28;;;9.59;73.18
48810;BME280;40070;47.322;18.784;2022-11-11T02:09:58;1018.33;;;9.58;73.45
48810;BME280;40070;47.322;18.784;2022-11-11T02:12:03;1018.33;;;9.68;72.99
48810;BME280;40070;47.322;18.784;2022-11-11T02:14:07;1018.38;;;9.14;74.66
48810;BME280;40070;47.322;18.784;2022-11-11T02:16:10;1018.36;;;9.05;76.49
48810;BME280;40070;47.322;18.784;2022-11-11T02:18:12;1018.39;;;9.28;74.75
48810;BME280;40070;47.322;18.784;2022-11-11T02:20:17;1018.42;;;9.34;73.89
48810;BME280;40070;47.322;18.784;2022-11-11T02:22:32;1018.37;;;9.51;73.25
48810;BME280;40070;47.322;18.784;2022-11-11T02:24:34;1018.36;;;9.48;72.96
48810;BME280;40070;47.322;18.784;2022-11-11T02:26:38;1018.41;;;9.48;72.85
48810;BME280;40070;47.322;18.784;2022-11-11T02:28:40;1018.44;;;9.50;72.72
48810;BME280;40070;47.322;18.784;2022-11-11T02:30:43;1018.43;;;9.53;72.33
48810;BME280;40070;47.322;18.784;2022-11-11T02:32:47;1018.48;;;9.53;72.02
48810;BME280;40070;47.322;18.784;2022-11-11T02:34:49;1018.44;;;9.63;71.63
48810;BME280;40070;47.322;18.784;2022-11-11T02:36:52;1018.45;;;9.55;71.57
48810;BME280;40070;47.322;18.784;2022-11-11T02:38:54;1018.47;;;9.53;71.77
48810;BME280;40070;47.322;18.784;2022-11-11T02:40:57;1018.50;;;9.39;72.45
48810;BME280;40070;47.322;18.784;2022-11-11T02:42:59;1018.51;;;9.20;73.30
48810;BME280;40070;47.322;18.784;2022-11-11T02:45:01;1018.52;;;9.29;72.87
48810;BME280;40070;47.322;18.784;2022-11-11T02:47:04;1018.53;;;9.36;72.41
48810;BME280;40070;47.322;18.784;2022-11-11T02:49:07;1018.53;;;9.35;72.29
48810;BME280;40070;47.322;18.784;2022-11-11T02:51:09;1018.55;;;9.40;72.21
48810;BME280;40070;47.322;18.784;2022-11-11T02:53:11;1018.56;;;9.41;72.39
48810;BME280;40070;47.322;18.784;2022-11-11T02:55:14;1018.58;;;9.40;72.86
48810;BME280;40070;47.322;18.784;2022-11-11T02:57:16;1018.65;;;9.29;72.86
48810;BME280;40070;47.322;18.784;2022-11-11T02:59:18;1018.65;;;9.28;72.71
48810;BME280;40070;47.322;18.784;2022-11-11T03:01:21;1018.64;;;9.15;73.88
48810;BME280;40070;47.322;18.784;2022-11-11T03:03:23;1018.67;;;8.92;74.39
48810;BME280;40070;47.322;18.784;2022-11-11T03:05:25;1018.74;;;9.08;74.11
48810;BME280;40070;47.322;18.784;2022-11-11T03:07:28;1018.75;;;8.85;74.19
48810;BME280;40070;47.322;18.784;2022-11-11T03:09:30;1018.76;;;8.91;74.14
48810;BME280;40070;47.322;18.784;2022-11-11T03:11:33;1018.80;;;9.07;73.17
48810;BME280;40070;47.322;18.784;2022-11-11T03:13:35;1018.83;;;9.07;72.79
48810;BME280;40070;47.322;18.784;2022-11-11T03:15:37;1018.86;;;9.14;72.27
48810;BME280;40070;47.322;18.784;2022-11-11T03:17:40;1018.86;;;9.13;71.92
48810;BME280;40070;47.322;18.784;2022-11-11T03:19:42;1018.91;;;9.17;71.58
48810;BME280;40070;47.322;18.784;2022-11-11T03:21:44;1018.88;;;8.98;71.22
48810;BME280;40070;47.322;18.784;2022-11-11T03:23:47;1018.89;;;8.91;71.38
48810;BME280;40070;47.322;18.784;2022-11-11T03:25:49;1018.90;;;8.74;71.08
48810;BME280;40070;47.322;18.784;2022-11-11T03:27:51;1018.91;;;8.75;70.90
48810;BME280;40070;47.322;18.784;2022-11-11T03:29:54;1018.92;;;8.86;70.65
48810;BME280;40070;47.322;18.784;2022-11-11T03:31:56;1018.93;;;8.83;70.65
48810;BME280;40070;47.322;18.784;2022-11-11T03:33:58;1018.97;;;8.74;71.07
48810;BME280;40070;47.322;18.784;2022-11-11T03:36:01;1018.97;;;8.81;71.05
48810;BME280;40070;47.322;18.784;2022-11-11T03:38:04;1018.95;;;8.78;70.98
48810;BME280;40070;47.322;18.784;2022-11-11T03:40:07;1018.98;;;8.73;71.18
48810;BME280;40070;47.322;18.784;2022-11-11T03:42:09;1019.07;;;8.80;71.38
48810;BME280;40070;47.322;18.784;2022-11-11T03:44:12;1019.10;;;8.81;71.36
48810;BME280;40070;47.322;18.784;2022-11-11T03:46:14;1019.17;;;8.92;71.14
48810;BME280;40070;47.322;18.784;2022-11-11T03:48:16;1019.17;;;8.90;71.19
48810;BME280;40070;47.322;18.784;2022-11-11T03:50:20;1019.14;;;8.86;71.10
48810;BME280;40070;47.322;18.784;2022-11-11T03:52:22;1019.10;;;8.70;71.29
48810;BME280;40070;47.322;18.784;2022-11-11T03:54:24;1019.13;;;8.71;71.02
48810;BME280;40070;47.322;18.784;2022-11-11T03:56:27;1019.13;;;8.70;71.08
48810;BME280;40070;47.322;18.784;2022-11-11T03:58:29;1019.11;;;8.79;70.78
48810;BME280;40070;47.322;18.784;2022-11-11T04:00:31;1019.08;;;8.87;70.46
48810;BME280;40070;47.322;18.784;2022-11-11T04:02:34;1019.06;;;8.90;70.04
48810;BME280;40070;47.322;18.784;2022-11-11T04:04:37;1019.08;;;8.91;69.83
48810;BME280;40070;47.322;18.784;2022-11-11T04:06:39;1019.06;;;8.88;69.56
48810;BME280;40070;47.322;18.784;2022-11-11T04:08:41;1019.05;;;8.89;69.05
48810;BME280;40070;47.322;18.784;2022-11-11T04:10:44;1019.08;;;8.84;68.69
48810;BME280;40070;47.322;18.784;2022-11-11T04:12:46;1019.11;;;8.65;69.83
48810;BME280;40070;47.322;18.784;2022-11-11T04:14:48;1019.14;;;8.56;70.29
48810;BME280;40070;47.322;18.784;2022-11-11T04:16:51;1019.15;;;8.65;70.06
48810;BME280;40070;47.322;18.784;2022-11-11T04:18:53;1019.20;;;8.48;70.95
48810;BME280;40070;47.322;18.784;2022-11-11T04:20:55;1019.23;;;8.46;71.08
48810;BME280;40070;47.322;18.784;2022-11-11T04:22:58;1019.20;;;8.48;71.15
48810;BME280;40070;47.322;18.784;2022-11-11T04:25:00;1019.22;;;8.65;70.62
48810;BME280;40070;47.322;18.784;2022-11-11T04:27:03;1019.27;;;8.62;70.57
48810;BME280;40070;47.322;18.784;2022-11-11T04:29:06;1019.28;;;8.64;70.10
48810;BME280;40070;47.322;18.784;2022-11-11T04:31:08;1019.31;;;8.54;70.28
48810;BME280;40070;47.322;18.784;2022-11-11T04:33:11;1019.31;;;8.42;70.54
48810;BME280;40070;47.322;18.784;2022-11-11T04:35:13;1019.30;;;8.54;70.39
48810;BME280;40070;47.322;18.784;2022-11-11T04:37:16;1019.30;;;8.49;70.20
48810;BME280;40070;47.322;18.784;2022-11-11T04:39:18;1019.31;;;8.49;70.08
48810;BME280;40070;47.322;18.784;2022-11-11T04:41:21;1019.30;;;8.42;70.12
48810;BME280;40070;47.322;18.784;2022-11-11T04:43:23;1019.35;;;8.28;70.03
48810;BME280;40070;47.322;18.784;2022-11-11T04:45:25;1019.38;;;8.21;70.99
48810;BME280;40070;47.322;18.784;2022-11-11T04:47:28;1019.40;;;8.25;70.87
48810;BME280;40070;47.322;18.784;2022-11-11T04:49:30;1019.40;;;8.38;70.38
48810;BME280;40070;47.322;18.784;2022-11-11T04:51:32;1019.43;;;8.44;70.20
48810;BME280;40070;47.322;18.784;2022-11-11T04:53:35;1019.46;;;8.08;72.17
48810;BME280;40070;47.322;18.784;2022-11-11T04:55:37;1019.46;;;7.97;73.90
48810;BME280;40070;47.322;18.784;2022-11-11T04:57:43;1019.45;;;7.38;76.89
48810;BME280;40070;47.322;18.784;2022-11-11T04:59:46;1019.51;;;7.11;78.96
48810;BME280;40070;47.322;18.784;2022-11-11T05:01:48;1019.54;;;7.27;79.55
48810;BME280;40070;47.322;18.784;2022-11-11T05:03:51;1019.55;;;7.14;80.27
48810;BME280;40070;47.322;18.784;2022-11-11T05:05:54;1019.50;;;7.15;80.93
48810;BME280;40070;47.322;18.784;2022-11-11T05:07:57;1019.50;;;7.42;80.18
48810;BME280;40070;47.322;18.784;2022-11-11T05:09:59;1019.51;;;7.56;80.07
48810;BME280;40070;47.322;18.784;2022-11-11T05:12:02;1019.54;;;8.00;77.98
48810;BME280;40070;47.322;18.784;2022-11-11T05:14:05;1019.55;;;8.13;77.47
48810;BME280;40070;47.322;18.784;2022-11-11T05:16:13;1019.55;;;7.88;77.57
48810;BME280;40070;47.322;18.784;2022-11-11T05:18:17;1019.55;;;8.03;77.78
48810;BME280;40070;47.322;18.784;2022-11-11T05:20:19;1019.56;;;8.19;76.94
48810;BME280;40070;47.322;18.784;2022-11-11T05:22:41;1019.58;;;8.26;76.99
48810;BME280;40070;47.322;18.784;2022-11-11T05:24:43;1019.52;;;8.21;76.85
48810;BME280;40070;47.322;18.784;2022-11-11T05:26:45;1019.55;;;8.49;75.86
48810;BME280;40070;47.322;18.784;2022-11-11T05:28:48;1019.55;;;8.45;75.80
48810;BME280;40070;47.322;18.784;2022-11-11T05:30:50;1019.55;;;8.55;75.66
48810;BME280;40070;47.322;18.784;2022-11-11T05:32:55;1019.52;;;8.54;75.59
48810;BME280;40070;47.322;18.784;2022-11-11T05:34:58;1019.54;;;8.62;75.27
48810;BME280;40070;47.322;18.784;2022-11-11T05:37:00;1019.59;;;8.48;75.94
48810;BME280;40070;47.322;18.784;2022-11-11T05:39:02;1019.64;;;8.29;76.96
48810;BME280;40070;47.322;18.784;2022-11-11T05:41:05;1019.67;;;8.31;77.46
48810;BME280;40070;47.322;18.784;2022-11-11T05:43:08;1019.67;;;7.94;78.56
48810;BME280;40070;47.322;18.784;2022-11-11T05:45:10;1019.60;;;8.17;78.50
48810;BME280;40070;47.322;18.784;2022-11-11T05:47:13;1019.61;;;8.11;78.81
48810;BME280;40070;47.322;18.784;2022-11-11T05:49:15;1019.64;;;8.21;78.73
48810;BME280;40070;47.322;18.784;2022-11-11T05:51:17;1019.68;;;8.15;78.65
48810;BME280;40070;47.322;18.784;2022-11-11T05:53:20;1019.69;;;8.20;79.40
48810;BME280;40070;47.322;18.784;2022-11-11T05:55:22;1019.67;;;8.10;79.14
48810;BME280;40070;47.322;18.784;2022-11-11T05:57:25;1019.71;;;8.21;79.21
48810;BME280;40070;47.322;18.784;2022-11-11T05:59:27;1019.74;;;8.32;78.77
48810;BME280;40070;47.322;18.784;2022-11-11T06:01:29;1019.78;;;8.30;78.98
48810;BME280;40070;47.322;18.784;2022-11-11T06:03:32;1019.79;;;8.49;78.34
48810;BME280;40070;47.322;18.784;2022-11-11T06:05:36;1019.83;;;8.56;78.24
48810;BME280;40070;47.322;18.784;2022-11-11T06:07:39;1019.83;;;8.62;77.63
48810;BME280;40070;47.322;18.784;2022-11-11T06:09:41;1019.83;;;8.50;78.65
48810;BME280;40070;47.322;18.784;2022-11-11T06:11:44;1019.85;;;8.56;78.74
48810;BME280;40070;47.322;18.784;2022-11-11T06:13:46;1019.87;;;8.72;78.30
48810;BME280;40070;47.322;18.784;2022-11-11T06:15:49;1019.87;;;9.01;77.28
48810;BME280;40070;47.322;18.784;2022-11-11T06:17:51;1019.86;;;9.06;76.50
48810;BME280;40070;47.322;18.784;2022-11-11T06:19:54;1019.90;;;8.98;76.88
48810;BME280;40070;47.322;18.784;2022-11-11T06:21:56;1019.96;;;9.19;76.61
48810;BME280;40070;47.322;18.784;2022-11-11T06:23:58;1020.03;;;9.15;76.30
48810;BME280;40070;47.322;18.784;2022-11-11T06:26:01;1020.00;;;9.15;76.27
48810;BME280;40070;47.322;18.784;2022-11-11T06:28:03;1019.98;;;9.20;76.40
48810;BME280;40070;47.322;18.784;2022-11-11T06:30:06;1019.99;;;9.04;76.60
48810;BME280;40070;47.322;18.784;2022-11-11T06:32:08;1020.01;;;8.66;77.94
48810;BME280;40070;47.322;18.784;2022-11-11T06:34:10;1020.10;;;8.33;79.09
48810;BME280;40070;47.322;18.784;2022-11-11T06:36:14;1020.11;;;8.20;79.70
48810;BME280;40070;47.322;18.784;2022-11-11T06:38:16;1020.13;;;7.86;81.04
48810;BME280;40070;47.322;18.784;2022-11-11T06:40:19;1020.14;;;7.78;82.09
48810;BME280;40070;47.322;18.784;2022-11-11T06:42:21;1020.24;;;7.82;82.22
48810;BME280;40070;47.322;18.784;2022-11-11T06:44:23;1020.18;;;7.93;82.11
48810;BME280;40070;47.322;18.784;2022-11-11T06:46:26;1020.18;;;8.13;81.54
48810;BME280;40070;47.322;18.784;2022-11-11T06:48:28;1020.17;;;8.45;80.27
48810;BME280;40070;47.322;18.784;2022-11-11T06:50:31;1020.14;;;8.35;80.18
48810;BME280;40070;47.322;18.784;2022-11-11T06:52:33;1020.16;;;8.55;79.98
48810;BME280;40070;47.322;18.784;2022-11-11T06:54:36;1020.14;;;8.58;79.18
48810;BME280;40070;47.322;18.784;2022-11-11T06:56:38;1020.16;;;8.96;78.63
48810;BME280;40070;47.322;18.784;2022-11-11T06:58:40;1020.14;;;9.06;77.99
48810;BME280;40070;47.322;18.784;2022-11-11T07:00:43;1020.18;;;9.04;77.95
48810;BME280;40070;47.322;18.784;2022-11-11T07:02:46;1020.18;;;9.22;77.50
48810;BME280;40070;47.322;18.784;2022-11-11T07:04:48;1020.27;;;9.32;77.41
48810;BME280;40070;47.322;18.784;2022-11-11T07:06:50;1020.36;;;9.15;77.13
48810;BME280;40070;47.322;18.784;2022-11-11T07:08:53;1020.35;;;9.37;77.37
48810;BME280;40070;47.322;18.784;2022-11-11T07:10:55;1020.36;;;9.60;76.65
48810;BME280;40070;47.322;18.784;2022-11-11T07:12:57;1020.40;;;8.92;78.52
48810;BME280;40070;47.322;18.784;2022-11-11T07:15:00;1020.46;;;8.87;79.42
48810;BME280;40070;47.322;18.784;2022-11-11T07:17:02;1020.49;;;8.82;80.21
48810;BME280;40070;47.322;18.784;2022-11-11T07:19:04;1020.51;;;8.76;80.29
48810;BME280;40070;47.322;18.784;2022-11-11T07:21:07;1020.50;;;8.77;80.11
48810;BME280;40070;47.322;18.784;2022-11-11T07:23:09;1020.53;;;8.84;80.39
48810;BME280;40070;47.322;18.784;2022-11-11T07:25:11;1020.54;;;8.88;80.28
48810;BME280;40070;47.322;18.784;2022-11-11T07:27:14;1020.59;;;8.99;80.18
48810;BME280;40070;47.322;18.784;2022-11-11T07:29:16;1020.69;;;9.02;79.93
48810;BME280;40070;47.322;18.784;2022-11-11T07:31:18;1020.75;;;8.82;81.12
48810;BME280;40070;47.322;18.784;2022-11-11T07:33:21;1020.83;;;8.86;81.41
48810;BME280;40070;47.322;18.784;2022-11-11T07:35:23;1020.83;;;9.00;81.23
48810;BME280;40070;47.322;18.784;2022-11-11T07:37:26;1020.84;;;9.10;81.42
48810;BME280;40070;47.322;18.784;2022-11-11T07:39:28;1020.86;;;9.17;81.90
48810;BME280;40070;47.322;18.784;2022-11-11T07:41:30;1020.90;;;9.37;81.38
48810;BME280;40070;47.322;18.784;2022-11-11T07:43:33;1020.89;;;9.24;81.79
48810;BME280;40070;47.322;18.784;2022-11-11T07:45:35;1020.90;;;9.44;81.42
48810;BME280;40070;47.322;18.784;2022-11-11T07:47:37;1020.95;;;9.39;81.34
48810;BME280;40070;47.322;18.784;2022-11-11T07:49:40;1020.92;;;9.65;80.78
48810;BME280;40070;47.322;18.784;2022-11-11T07:51:42;1020.90;;;9.82;80.21
48810;BME280;40070;47.322;18.784;2022-11-11T07:53:44;1020.92;;;9.92;79.62
48810;BME280;40070;47.322;18.784;2022-11-11T07:55:47;1020.95;;;10.02;79.16
48810;BME280;40070;47.322;18.784;2022-11-11T07:57:52;1020.89;;;10.07;79.03
48810;BME280;40070;47.322;18.784;2022-11-11T07:59:54;1020.92;;;10.14;78.56
48810;BME280;40070;47.322;18.784;2022-11-11T08:01:57;1020.96;;;10.28;78.38
48810;BME280;40070;47.322;18.784;2022-11-11T08:03:59;1020.94;;;10.21;79.25
48810;BME280;40070;47.322;18.784;2022-11-11T08:06:02;1020.95;;;10.16;79.14
48810;BME280;40070;47.322;18.784;2022-11-11T08:08:07;1020.93;;;10.48;78.32
48810;BME280;40070;47.322;18.784;2022-11-11T08:10:10;1020.99;;;10.39;78.51
48810;BME280;40070;47.322;18.784;2022-11-11T08:12:13;1020.97;;;10.40;78.90
48810;BME280;40070;47.322;18.784;2022-11-11T08:14:15;1021.00;;;10.59;78.38
48810;BME280;40070;47.322;18.784;2022-11-11T08:16:17;1020.99;;;10.56;78.61
48810;BME280;40070;47.322;18.784;2022-11-11T08:18:20;1020.96;;;10.66;78.03
48810;BME280;40070;47.322;18.784;2022-11-11T08:20:22;1020.98;;;10.92;77.28
48810;BME280;40070;47.322;18.784;2022-11-11T08:22:24;1021.00;;;10.86;77.06
48810;BME280;40070;47.322;18.784;2022-11-11T08:24:27;1021.01;;;11.06;76.99
48810;BME280;40070;47.322;18.784;2022-11-11T08:26:29;1021.01;;;11.03;76.72
48810;BME280;40070;47.322;18.784;2022-11-11T08:28:32;1020.98;;;10.93;77.37
48810;BME280;40070;47.322;18.784;2022-11-11T08:30:34;1020.96;;;11.27;76.16
48810;BME280;40070;47.322;18.784;2022-11-11T08:32:37;1020.97;;;11.53;74.85
48810;BME280;40070;47.322;18.784;2022-11-11T08:34:39;1020.93;;;11.60;74.97
48810;BME280;40070;47.322;18.784;2022-11-11T08:36:41;1020.94;;;11.80;75.01
48810;BME280;40070;47.322;18.784;2022-11-11T08:38:44;1020.99;;;11.71;75.23
48810;BME280;40070;47.322;18.784;2022-11-11T08:40:46;1021.08;;;11.75;74.92
48810;BME280;40070;47.322;18.784;2022-11-11T08:42:48;1021.08;;;11.90;74.80
48810;BME280;40070;47.322;18.784;2022-11-11T08:44:51;1021.15;;;12.07;74.83
48810;BME280;40070;47.322;18.784;2022-11-11T08:46:54;1021.12;;;12.64;73.13
48810;BME280;40070;47.322;18.784;2022-11-11T08:48:56;1021.13;;;12.89;71.89
48810;BME280;40070;47.322;18.784;2022-11-11T08:50:59;1021.17;;;12.89;71.71
48810;BME280;40070;47.322;18.784;2022-11-11T08:53:01;1021.14;;;12.77;71.35
48810;BME280;40070;47.322;18.784;2022-11-11T08:55:03;1021.07;;;13.32;70.33
48810;BME280;40070;47.322;18.784;2022-11-11T08:57:06;1021.06;;;13.35;69.04
48810;BME280;40070;47.322;18.784;2022-11-11T08:59:08;1021.04;;;13.26;69.45
48810;BME280;40070;47.322;18.784;2022-11-11T09:01:11;1021.09;;;13.32;69.74
48810;BME280;40070;47.322;18.784;2022-11-11T09:03:14;1021.08;;;13.83;68.81
48810;BME280;40070;47.322;18.784;2022-11-11T09:05:16;1021.08;;;13.97;68.44
48810;BME280;40070;47.322;18.784;2022-11-11T09:07:19;1021.05;;;14.17;67.58
48810;BME280;40070;47.322;18.784;2022-11-11T09:09:21;1021.06;;;13.80;68.30
48810;BME280;40070;47.322;18.784;2022-11-11T09:11:23;1021.08;;;13.50;68.53
48810;BME280;40070;47.322;18.784;2022-11-11T09:13:26;1021.15;;;13.26;69.39
48810;BME280;40070;47.322;18.784;2022-11-11T09:15:28;1021.17;;;12.94;70.53
48810;BME280;40070;47.322;18.784;2022-11-11T09:17:31;1021.14;;;12.72;71.10
48810;BME280;40070;47.322;18.784;2022-11-11T09:19:33;1021.14;;;12.82;71.54
48810;BME280;40070;47.322;18.784;2022-11-11T09:21:35;1021.14;;;12.97;71.49
48810;BME280;40070;47.322;18.784;2022-11-11T09:23:38;1021.15;;;13.43;70.30
48810;BME280;40070;47.322;18.784;2022-11-11T09:25:40;1021.14;;;13.54;69.42
48810;BME280;40070;47.322;18.784;2022-11-11T09:27:42;1021.12;;;13.46;69.25
48810;BME280;40070;47.322;18.784;2022-11-11T09:29:45;1021.10;;;13.37;68.92
48810;BME280;40070;47.322;18.784;2022-11-11T09:31:47;1021.06;;;13.38;69.49
48810;BME280;40070;47.322;18.784;2022-11-11T09:33:50;1021.10;;;12.83;70.82
48810;BME280;40070;47.322;18.784;2022-11-11T09:35:52;1021.09;;;13.14;70.36
48810;BME280;40070;47.322;18.784;2022-11-11T09:37:55;1021.10;;;13.18;70.53
48810;BME280;40070;47.322;18.784;2022-11-11T09:39:57;1021.09;;;13.56;69.25
48810;BME280;40070;47.322;18.784;2022-11-11T09:44:31;1021.00;;;13.83;68.48
48810;BME280;40070;47.322;18.784;2022-11-11T09:46:46;1020.99;;;14.41;67.57
48810;BME280;40070;47.322;18.784;2022-11-11T09:48:57;1021.00;;;14.73;66.18
48810;BME280;40070;47.322;18.784;2022-11-11T09:51:04;1020.91;;;14.18;66.97
48810;BME280;40070;47.322;18.784;2022-11-11T09:53:31;1020.86;;;14.42;66.13
48810;BME280;40070;47.322;18.784;2022-11-11T09:55:55;1020.86;;;14.95;65.72
48810;BME280;40070;47.322;18.784;2022-11-11T09:57:52;1020.87;;;15.11;64.83
48810;BME280;40070;47.322;18.784;2022-11-11T09:59:57;1020.87;;;15.01;64.57
48810;BME280;40070;47.322;18.784;2022-11-11T10:02:01;1020.89;;;15.01;64.27
48810;BME280;40070;47.322;18.784;2022-11-11T10:06:26;1020.85;;;15.54;62.21
48810;BME280;40070;47.322;18.784;2022-11-11T10:09:32;1020.78;;;15.65;62.08
48810;BME280;40070;47.322;18.784;2022-11-11T10:10:53;1020.80;;;15.59;62.02
48810;BME280;40070;47.322;18.784;2022-11-11T10:12:56;1020.78;;;15.72;61.18
48810;BME280;40070;47.322;18.784;2022-11-11T10:14:59;1020.84;;;15.49;61.65
48810;BME280;40070;47.322;18.784;2022-11-11T10:19:29;1020.82;;;15.29;62.44
48810;BME280;40070;47.322;18.784;2022-11-11T10:21:51;1020.83;;;15.44;62.18
48810;BME280;40070;47.322;18.784;2022-11-11T10:23:54;1020.78;;;15.43;62.01
48810;BME280;40070;47.322;18.784;2022-11-11T10:26:01;1020.76;;;15.36;61.79
48810;BME280;40070;47.322;18.784;2022-11-11T10:28:04;1020.74;;;15.62;61.47
48810;BME280;40070;47.322;18.784;2022-11-11T10:30:17;1020.72;;;15.90;60.45
48810;BME280;40070;47.322;18.784;2022-11-11T10:32:26;1020.66;;;16.11;60.21
48810;BME280;40070;47.322;18.784;2022-11-11T10:34:32;1020.58;;;16.14;60.59
48810;BME280;40070;47.322;18.784;2022-11-11T10:36:37;1020.50;;;16.04;59.80
48810;BME280;40070;47.322;18.784;2022-11-11T10:38:46;1020.47;;;16.41;58.90
48810;BME280;40070;47.322;18.784;2022-11-11T10:40:51;1020.42;;;17.07;57.70
48810;BME280;40070;47.322;18.784;2022-11-11T10:42:54;1020.35;;;16.68;57.81
48810;BME280;40070;47.322;18.784;2022-11-11T10:44:58;1020.35;;;16.74;58.09
48810;BME280;40070;47.322;18.784;2022-11-11T10:47:12;1020.41;;;17.11;58.16
48810;BME280;40070;47.322;18.784;2022-11-11T10:49:18;1020.38;;;17.95;56.45
48810;BME280;40070;47.322;18.784;2022-11-11T10:51:23;1020.43;;;18.22;54.88
48810;BME280;40070;47.322;18.784;2022-11-11T10:55:55;1020.33;;;18.14;53.07
48810;BME280;40070;47.322;18.784;2022-11-11T10:58:03;1020.41;;;17.58;54.96
48810;BME280;40070;47.322;18.784;2022-11-11T11:00:09;1020.49;;;18.06;53.87
48810;BME280;40070;47.322;18.784;2022-11-11T11:02:16;1020.58;;;17.26;55.38
48810;BME280;40070;47.322;18.784;2022-11-11T11:04:39;1020.56;;;17.40;55.30
48810;BME280;40070;47.322;18.784;2022-11-11T11:06:38;1020.49;;;17.31;55.95
48810;BME280;40070;47.322;18.784;2022-11-11T11:08:44;1020.45;;;17.27;55.81